Time;durP1;ratioP1;P1;durP2;ratioP2;P2;SDS_P1;SDS_P2;PMS_P1;PMS_P2;Temp;Humidity;BMP_temperature;BMP_pressure;BME280_temperature;BME280_humidity;BME280_pressure;Samples;Min_cycle;Max_cycle;Signal;HPM_P1;HPM_P2
2022/03/20 00:00:35;;;;;;;88.00;26.33;;;;;;;1.07;41.52;102981.12;1754145;82;21582;-62
2022/03/20 00:03:09;;;;;;;90.28;29.40;;;;;;;1.05;41.60;102975.80;1754040;82;21201;-62
2022/03/20 00:05:39;;;;;;;84.52;26.52;;;;;;;1.05;41.73;102976.27;1754112;82;21555;-61
2022/03/20 00:08:11;;;;;;;79.00;23.67;;;;;;;1.05;41.75;102966.83;1754272;82;21147;-62
2022/03/20 00:10:50;;;;;;;85.75;25.08;;;;;;;1.05;41.87;102975.80;1754028;82;21158;-62
2022/03/20 00:13:22;;;;;;;77.17;24.80;;;;;;;1.06;41.90;102976.67;1754326;82;21146;-62
2022/03/20 00:15:54;;;;;;;66.67;23.15;;;;;;;1.06;42.03;102980.72;1754030;82;21163;-62
2022/03/20 00:18:26;;;;;;;66.60;22.35;;;;;;;1.04;42.19;102977.22;1754110;82;21146;-61
2022/03/20 00:20:57;;;;;;;65.35;22.37;;;;;;;1.04;42.32;102971.83;1754065;82;21111;-63
2022/03/20 00:23:26;;;;;;;67.90;22.27;;;;;;;1.03;42.50;102968.25;1738442;82;21182;-62
2022/03/20 00:25:56;;;;;;;60.17;20.08;;;;;;;1.06;42.66;102971.27;1807030;79;21164;-62
2022/03/20 00:28:25;;;;;;;55.08;19.15;;;;;;;1.05;42.83;102973.09;1738456;82;21091;-62
2022/03/20 00:30:54;;;;;;;66.00;20.65;;;;;;;1.03;43.10;102966.02;1806816;79;21567;-61
2022/03/20 00:33:23;;;;;;;60.85;20.05;;;;;;;1.02;43.03;102971.89;1806495;79;21100;-61
2022/03/20 00:35:53;;;;;;;51.90;18.12;;;;;;;1.01;43.14;102970.62;1737619;82;21605;-62
2022/03/20 00:38:23;;;;;;;55.15;18.42;;;;;;;1.00;43.25;102972.44;1806542;79;21142;-63
2022/03/20 00:40:51;;;;;;;50.55;19.27;;;;;;;1.00;43.38;102968.87;1737656;82;21178;-62
2022/03/20 00:43:20;;;;;;;48.15;16.93;;;;;;;0.98;43.53;102967.59;1806159;79;21108;-62
2022/03/20 00:45:49;;;;;;;45.43;17.15;;;;;;;0.97;43.78;102975.77;1737825;82;21135;-62
2022/03/20 00:48:21;;;;;;;53.50;16.45;;;;;;;0.93;43.99;102969.63;1805993;79;21095;-63
2022/03/20 00:50:50;;;;;;;45.35;16.32;;;;;;;0.91;44.30;102972.41;1806391;79;21178;-62
2022/03/20 00:53:19;;;;;;;50.83;15.85;;;;;;;0.90;44.42;102968.43;1737746;82;21123;-62
2022/03/20 00:55:49;;;;;;;41.30;14.10;;;;;;;0.89;44.68;102967.55;1806375;79;21641;-62
2022/03/20 00:58:18;;;;;;;39.95;13.95;;;;;;;0.87;45.35;102966.75;1737863;82;21128;-62
2022/03/20 01:00:50;;;;;;;42.40;14.18;;;;;;;0.86;45.43;102965.00;1806255;79;21142;-62
2022/03/20 01:03:20;;;;;;;37.38;13.03;;;;;;;0.84;45.71;102960.15;1737935;82;21115;-62
2022/03/20 01:05:49;;;;;;;38.85;13.30;;;;;;;0.82;45.82;102957.99;1806419;79;21107;-61
2022/03/20 01:08:18;;;;;;;34.75;13.43;;;;;;;0.82;45.89;102959.34;1737858;82;21103;-60
2022/03/20 01:10:47;;;;;;;39.80;13.60;;;;;;;0.83;46.07;102952.13;1806235;79;21115;-62
2022/03/20 01:13:18;;;;;;;37.63;12.28;;;;;;;0.83;46.12;102958.39;1806385;79;21560;-61
2022/03/20 01:15:48;;;;;;;48.13;13.58;;;;;;;0.82;46.29;102953.95;1737595;82;21146;-62
2022/03/20 01:18:17;;;;;;;35.55;12.93;;;;;;;0.82;46.49;102959.81;1806537;79;21135;-62
2022/03/20 01:20:48;;;;;;;34.88;12.88;;;;;;;0.80;46.75;102958.54;1806224;79;21123;-62
2022/03/20 01:23:20;;;;;;;29.25;11.68;;;;;;;0.80;46.83;102963.94;1718824;82;21184;-62
2022/03/20 01:25:49;;;;;;;31.17;12.10;;;;;;;0.79;46.99;102958.14;1716983;83;21649;-62
2022/03/20 01:28:18;;;;;;;33.85;12.75;;;;;;;0.79;47.09;102955.44;1717105;83;21127;-61
2022/03/20 01:30:47;;;;;;;33.50;12.18;;;;;;;0.78;47.29;102961.78;1743336;82;21167;-61
2022/03/20 01:33:18;;;;;;;27.48;11.43;;;;;;;0.76;47.49;102951.53;1743434;82;21155;-61
2022/03/20 01:35:47;;;;;;;26.85;11.83;;;;;;;0.75;47.56;102956.53;1743115;82;21193;-61
2022/03/20 01:38:20;;;;;;;29.20;10.82;;;;;;;0.74;47.79;102956.60;1743143;82;21179;-62
2022/03/20 01:40:47;;;;;;;31.50;12.30;;;;;;;0.71;48.13;102949.52;1743237;82;21151;-62
2022/03/20 01:43:17;;;;;;;31.75;11.65;;;;;;;0.71;48.13;102952.22;1743519;82;21122;-62
2022/03/20 01:45:46;;;;;;;26.90;11.28;;;;;;;0.70;48.33;102953.64;1743241;82;21170;-62
2022/03/20 01:48:15;;;;;;;29.02;11.60;;;;;;;0.69;48.44;102959.52;1743352;82;21573;-62
2022/03/20 01:50:45;;;;;;;37.85;12.07;;;;;;;0.66;48.54;102959.66;1743103;82;21560;-62
2022/03/20 01:53:13;;;;;;;33.92;11.60;;;;;;;0.66;48.69;102967.75;1743449;82;21599;-61
2022/03/20 01:55:42;;;;;;;32.08;12.18;;;;;;;0.63;48.92;102956.59;1743296;82;21539;-62
2022/03/20 01:58:11;;;;;;;29.70;11.65;;;;;;;0.61;49.01;102962.53;1743404;82;21531;-62
2022/03/20 02:00:39;;;;;;;23.10;11.30;;;;;;;0.61;49.07;102963.01;1743168;82;21127;-62
2022/03/20 02:03:10;;;;;;;27.42;11.63;;;;;;;0.60;49.15;102955.86;1743263;82;21143;-61
2022/03/20 02:05:42;;;;;;;27.95;11.50;;;;;;;0.59;49.26;102954.98;1743283;82;21595;-61
2022/03/20 02:08:11;;;;;;;28.15;11.60;;;;;;;0.59;49.40;102952.76;1743178;82;21536;-62
2022/03/20 02:10:43;;;;;;;28.85;11.15;;;;;;;0.58;49.52;102953.70;1743273;82;21143;-61
2022/03/20 02:13:12;;;;;;;27.05;11.18;;;;;;;0.58;49.60;102952.36;1743170;82;21134;-61
2022/03/20 02:15:41;;;;;;;27.42;11.63;;;;;;;0.56;49.62;102952.42;1743069;82;21579;-61
2022/03/20 02:18:14;;;;;;;28.87;11.83;;;;;;;0.55;49.78;102949.33;1713852;82;21084;-62
2022/03/20 02:20:49;;;;;;;27.25;11.25;;;;;;;0.55;49.86;102948.45;1743117;82;21135;-62
2022/03/20 02:23:18;;;;;;;24.63;11.63;;;;;;;0.55;49.94;102945.75;1759579;81;21574;-62
2022/03/20 02:25:51;;;;;;;26.17;10.93;;;;;;;0.53;50.04;102944.48;1806402;79;21154;-62
2022/03/20 02:28:20;;;;;;;26.23;11.03;;;;;;;0.52;50.09;102946.77;1737654;82;21151;-61
2022/03/20 02:30:48;;;;;;;27.35;11.10;;;;;;;0.51;50.22;102949.55;1806467;79;21131;-62
2022/03/20 02:33:18;;;;;;;25.27;11.08;;;;;;;0.49;50.34;102941.52;1737920;82;21111;-61
2022/03/20 02:35:48;;;;;;;24.67;10.58;;;;;;;0.48;50.53;102948.33;1806357;79;21103;-61
2022/03/20 02:38:20;;;;;;;26.60;10.88;;;;;;;0.47;50.61;102947.45;1737851;82;21116;-62
2022/03/20 02:40:54;;;;;;;25.15;11.18;;;;;;;0.45;50.62;102950.70;1806205;79;21535;-62
2022/03/20 02:43:29;;;;;;;24.55;11.25;;;;;;;0.46;50.74;102956.97;1737666;82;21555;-61
2022/03/20 02:45:55;;;;;;;26.93;10.95;;;;;;;0.43;50.75;102954.41;1805649;79;21103;-61
2022/03/20 02:48:24;;;;;;;23.50;10.95;;;;;;;0.41;50.78;102946.86;1737609;82;21135;-62
2022/03/20 02:50:53;;;;;;;27.27;10.75;;;;;;;0.41;50.82;102959.00;1806187;79;21103;-61
2022/03/20 02:53:22;;;;;;;25.88;10.20;;;;;;;0.38;50.88;102956.44;1737811;82;21088;-62
2022/03/20 02:55:51;;;;;;;25.12;11.10;;;;;;;0.36;51.03;102952.94;1806477;79;21099;-61
2022/03/20 02:58:21;;;;;;;26.85;10.75;;;;;;;0.34;51.17;102953.48;1806224;79;21138;-62
2022/03/20 03:00:52;;;;;;;23.77;10.60;;;;;;;0.33;51.20;102959.81;1737804;82;21170;-62
2022/03/20 03:03:22;;;;;;;24.30;10.00;;;;;;;0.33;51.28;102958.47;1806181;79;21597;-61
2022/03/20 03:05:56;;;;;;;20.15;10.00;;;;;;;0.31;51.42;102947.75;1737490;82;21572;-61
2022/03/20 03:11:12;;;;;;;22.93;10.18;;;;;;;0.29;51.55;102938.38;1737762;82;21583;-63
2022/03/20 03:13:41;;;;;;;23.65;10.15;;;;;;;0.27;51.64;102944.31;1806398;79;21644;-61
2022/03/20 03:16:14;;;;;;;24.45;10.20;;;;;;;0.27;51.82;102942.09;1806314;79;21154;-61
2022/03/20 03:18:47;;;;;;;22.45;10.10;;;;;;;0.26;51.98;102940.34;1806332;79;21629;-62
2022/03/20 03:21:16;;;;;;;22.17;9.90;;;;;;;0.24;52.17;102939.53;1806201;79;21111;-61
2022/03/20 03:23:45;;;;;;;23.75;10.05;;;;;;;0.24;52.29;102943.11;1806144;79;21622;-62
2022/03/20 03:26:14;;;;;;;23.60;9.90;;;;;;;0.24;52.35;102939.53;1737620;82;21603;-62
2022/03/20 03:28:43;;;;;;;23.45;10.18;;;;;;;0.22;52.42;102938.25;1806389;79;21138;-62
2022/03/20 03:31:13;;;;;;;24.30;10.25;;;;;;;0.22;52.47;102934.69;1737597;82;21159;-62
2022/03/20 03:36:30;;;;;;;24.60;9.98;;;;;;;0.19;52.73;102922.69;1738004;82;21535;-62
2022/03/20 03:38:59;;;;;;;27.27;10.25;;;;;;;0.16;52.81;102923.70;1806153;79;21174;-62
2022/03/20 03:41:28;;;;;;;23.80;10.43;;;;;;;0.14;52.98;102916.16;1737546;82;21194;-62
2022/03/20 03:43:56;;;;;;;25.30;10.30;;;;;;;0.12;53.06;102920.74;1806082;79;21182;-62
2022/03/20 03:46:26;;;;;;;22.98;9.80;;;;;;;0.11;53.32;102922.16;1737560;82;21163;-62
2022/03/20 03:48:55;;;;;;;21.87;10.48;;;;;;;0.10;53.39;102911.84;1806483;79;21589;-61
2022/03/20 03:51:24;;;;;;;25.68;10.63;;;;;;;0.09;53.50;102918.66;1737517;82;21119;-61
2022/03/20 03:53:53;;;;;;;29.30;11.50;;;;;;;0.09;53.57;102920.88;1784191;79;22156;-62
2022/03/20 03:56:23;;;;;;;26.65;12.23;;;;;;;0.06;53.68;102923.70;1737648;82;21618;-61
2022/03/20 03:58:52;;;;;;;28.85;10.85;;;;;;;0.08;53.67;102923.64;1806193;79;21144;-62
2022/03/20 04:01:21;;;;;;;25.95;11.65;;;;;;;0.09;53.72;102920.88;1737540;82;21123;-61
2022/03/20 04:03:51;;;;;;;30.92;12.28;;;;;;;0.10;53.73;102917.71;1806251;79;21535;-62
2022/03/20 04:06:20;;;;;;;29.30;13.10;;;;;;;0.11;53.67;102920.34;1737565;82;21214;-61
2022/03/20 04:08:50;;;;;;;34.08;12.07;;;;;;;0.09;53.64;102908.75;1806278;79;21123;-62
2022/03/20 04:11:19;;;;;;;31.37;12.68;;;;;;;0.10;53.72;102912.32;1737746;82;21563;-64
2022/03/20 04:13:48;;;;;;;35.75;13.10;;;;;;;0.09;53.67;102911.91;1806290;79;21111;-62
2022/03/20 04:16:16;;;;;;;35.17;14.35;;;;;;;0.06;53.62;102904.84;1737842;82;21617;-61
2022/03/20 04:18:45;;;;;;;39.00;14.70;;;;;;;0.04;53.64;102908.55;1806163;79;21110;-61
2022/03/20 04:21:15;;;;;;;45.08;16.25;;;;;;;0.03;53.66;102907.67;1737760;82;21571;-61
2022/03/20 04:23:49;;;;;;;45.58;15.90;;;;;;;0.02;53.62;102907.27;1771837;80;21138;-61
2022/03/20 04:26:20;;;;;;;43.13;16.00;;;;;;;0.02;53.62;102895.14;1782857;80;21190;-62
2022/03/20 04:28:50;;;;;;;46.35;17.48;;;;;;;0.03;53.55;102906.33;1783089;80;21103;-61
2022/03/20 04:31:19;;;;;;;47.45;17.65;;;;;;;0.02;53.44;102908.62;1782836;80;21110;-62
2022/03/20 04:33:56;;;;;;;50.30;18.48;;;;;;;0.02;53.40;102901.88;1782756;80;21111;-61
2022/03/20 04:36:25;;;;;;;50.23;19.27;;;;;;;0.02;53.33;102901.00;1782801;80;21139;-62
2022/03/20 04:38:55;;;;;;;54.48;20.12;;;;;;;0.04;53.19;102913.94;1783011;80;21104;-61
2022/03/20 04:41:24;;;;;;;60.80;21.33;;;;;;;0.04;53.11;102913.94;1783069;80;21108;-61
2022/03/20 04:43:53;;;;;;;57.30;21.15;;;;;;;0.05;53.08;102917.04;1782884;80;21123;-61
2022/03/20 04:46:22;;;;;;;64.92;23.73;;;;;;;0.01;53.02;102920.34;1783109;80;21593;-61
2022/03/20 05:00:05;;;;;;;61.15;21.42;;;;;;;0.06;52.68;102926.41;1783188;80;21147;-61
2022/03/20 05:02:34;;;;;;;62.70;22.58;;;;;;;0.10;52.56;102919.05;1782671;80;21147;-60
2022/03/20 05:05:05;;;;;;;72.92;24.47;;;;;;;0.11;52.47;102919.46;1782892;80;21111;-62
2022/03/20 05:07:34;;;;;;;68.83;22.75;;;;;;;0.12;52.35;102920.74;1782751;80;21147;-61
2022/03/20 05:15:43;;;;;;;64.75;21.20;;;;;;;0.20;51.92;102923.97;1782788;80;21107;-61
2022/03/20 05:18:12;;;;;;;59.55;20.23;;;;;;;0.23;51.73;102923.83;1783087;79;21111;-62
2022/03/20 05:20:43;;;;;;;63.98;22.48;;;;;;;0.25;51.56;102928.68;1782806;80;21548;-61
2022/03/20 05:23:12;;;;;;;68.57;20.85;;;;;;;0.29;51.39;102926.72;1788029;79;21163;-62
2022/03/20 05:25:42;;;;;;;64.97;21.30;;;;;;;0.31;51.27;102933.80;1737450;82;21131;-61
2022/03/20 05:28:11;;;;;;;82.25;25.20;;;;;;;0.34;51.07;102934.60;1806131;79;21147;-61
2022/03/20 05:30:42;;;;;;;83.47;26.00;;;;;;;0.35;50.91;102938.58;1737796;82;21124;-62
2022/03/20 05:33:12;;;;;;;91.13;27.63;;;;;;;0.38;50.86;102937.56;1806510;79;21536;-61
2022/03/20 05:35:43;;;;;;;85.67;25.92;;;;;;;0.42;50.68;102941.87;1737783;82;21624;-61
2022/03/20 05:38:12;;;;;;;82.95;25.55;;;;;;;0.45;50.53;102941.73;1806559;79;21119;-61
2022/03/20 05:40:44;;;;;;;82.00;26.55;;;;;;;0.47;50.47;102941.19;1737812;82;21563;-62
2022/03/20 05:43:14;;;;;;;92.90;26.52;;;;;;;0.50;50.32;102941.05;1806442;79;21112;-62
2022/03/20 05:45:44;;;;;;;75.87;24.63;;;;;;;0.53;50.23;102944.95;1806185;79;21548;-61
2022/03/20 05:48:13;;;;;;;71.82;22.58;;;;;;;0.55;50.15;102952.02;1737620;82;21132;-62
2022/03/20 05:50:44;;;;;;;71.10;22.20;;;;;;;0.59;49.99;102958.16;1806138;79;21162;-62
2022/03/20 05:53:13;;;;;;;63.02;22.13;;;;;;;0.62;49.83;102952.62;1806661;79;21099;-61
2022/03/20 05:58:32;;;;;;;65.10;20.20;;;;;;;0.70;49.56;102955.87;1806261;79;21194;-61
2022/03/20 06:01:01;;;;;;;50.33;18.35;;;;;;;0.74;49.40;102958.83;1737801;82;21124;-62
2022/03/20 06:03:31;;;;;;;43.38;17.27;;;;;;;0.78;49.33;102964.48;1806501;79;21146;-62
2022/03/20 06:06:00;;;;;;;50.35;16.70;;;;;;;0.82;49.24;102959.34;1737825;82;21194;-62
2022/03/20 06:08:31;;;;;;;37.55;14.75;;;;;;;0.86;49.15;102958.72;1806112;79;21142;-61
2022/03/20 06:11:00;;;;;;;36.50;15.28;;;;;;;0.91;49.08;102969.70;1737653;82;21151;-62
2022/03/20 06:13:31;;;;;;;35.70;14.50;;;;;;;0.97;48.99;102967.66;1806360;79;21509;-63
2022/03/20 06:16:00;;;;;;;38.95;14.60;;;;;;;1.01;49.00;102967.45;1716888;82;21118;-61
2022/03/20 06:18:29;;;;;;;34.92;14.45;;;;;;;1.07;48.94;102971.67;1806165;79;21617;-61
2022/03/20 06:20:57;;;;;;;36.38;16.00;;;;;;;1.12;48.86;102969.16;1806471;79;21139;-61
2022/03/20 06:23:29;;;;;;;44.70;17.35;;;;;;;1.18;48.84;102967.98;1733078;82;21635;-61
2022/03/20 06:25:58;;;;;;;41.48;17.00;;;;;;;1.21;48.79;102967.84;1714651;82;21178;-62
2022/03/20 06:28:30;;;;;;;41.33;17.10;;;;;;;1.27;48.70;102968.89;1743140;82;21158;-62
2022/03/20 06:30:59;;;;;;;42.53;16.55;;;;;;;1.31;48.60;102965.59;1742926;82;21143;-62
2022/03/20 06:33:30;;;;;;;38.92;16.23;;;;;;;1.33;48.49;102961.86;1738903;82;21123;-62
2022/03/20 06:35:59;;;;;;;35.73;15.15;;;;;;;1.36;48.50;102960.37;1743110;82;21191;-61
2022/03/20 06:38:27;;;;;;;37.78;15.35;;;;;;;1.39;48.38;102957.98;1743085;82;21557;-61
2022/03/20 06:40:56;;;;;;;38.63;14.00;;;;;;;1.41;48.48;102954.26;1743446;82;21158;-63
2022/03/20 06:43:27;;;;;;;40.03;14.13;;;;;;;1.44;48.57;102955.46;1743195;82;21142;-62
2022/03/20 06:45:57;;;;;;;32.53;12.98;;;;;;;1.51;48.67;102962.78;1743212;82;21202;-61
2022/03/20 06:48:27;;;;;;;32.20;13.48;;;;;;;1.54;48.64;102958.58;1738769;82;21624;-62
2022/03/20 06:50:57;;;;;;;29.20;12.45;;;;;;;1.58;48.63;102966.45;1743325;82;21226;-63
2022/03/20 06:53:25;;;;;;;28.80;12.25;;;;;;;1.63;48.66;102958.59;1743323;82;21139;-62
2022/03/20 06:55:54;;;;;;;29.90;12.88;;;;;;;1.67;48.84;102965.59;1743397;82;21555;-62
2022/03/20 06:58:23;;;;;;;24.82;11.40;;;;;;;1.70;48.58;102958.67;1743187;82;21128;-62
2022/03/20 07:00:53;;;;;;;21.15;9.85;;;;;;;1.73;48.76;102959.40;1743193;82;21124;-63
2022/03/20 07:03:23;;;;;;;19.92;10.13;;;;;;;1.78;48.87;102955.11;1780052;80;21503;-62
2022/03/20 07:05:52;;;;;;;34.92;13.75;;;;;;;1.81;48.91;102957.66;1779759;80;21182;-61
2022/03/20 07:08:22;;;;;;;31.07;12.80;;;;;;;1.84;48.81;102956.14;1780000;80;21150;-63
2022/03/20 07:10:53;;;;;;;26.45;11.90;;;;;;;1.89;48.36;102959.48;1780016;80;21649;-62
2022/03/20 07:16:10;;;;;;;25.80;10.65;;;;;;;2.02;47.90;102955.70;1780010;80;21087;-62
2022/03/20 07:18:39;;;;;;;21.90;9.85;;;;;;;2.10;48.02;102955.70;1725057;80;21165;-61
2022/03/20 07:21:08;;;;;;;21.23;9.75;;;;;;;2.16;47.73;102956.73;1726139;80;21138;-62
2022/03/20 07:23:38;;;;;;;21.25;9.43;;;;;;;2.23;47.60;102951.39;1783791;79;21758;-63
2022/03/20 07:31:41;;;;;;;21.10;9.15;;;;;;;2.46;47.46;102946.58;1814680;79;21123;-62
2022/03/20 07:34:12;;;;;;;18.67;8.40;;;;;;;2.51;47.41;102941.80;1776299;81;21544;-62
2022/03/20 07:36:42;;;;;;;24.52;8.18;;;;;;;2.58;47.40;102950.45;1745553;82;21582;-62
2022/03/20 07:39:11;;;;;;;18.57;8.78;;;;;;;2.65;47.12;102948.72;1814888;79;21142;-62
2022/03/20 07:41:40;;;;;;;18.60;7.80;;;;;;;2.71;47.07;102945.67;1776089;81;21692;-62
2022/03/20 07:44:10;;;;;;;18.50;8.28;;;;;;;2.81;47.13;102951.45;1745545;82;21566;-63
2022/03/20 07:46:40;;;;;;;21.95;9.33;;;;;;;2.87;46.96;102952.46;1745617;82;21095;-62
2022/03/20 07:49:09;;;;;;;18.92;8.65;;;;;;;2.95;46.95;102954.74;1815079;79;21099;-63
2022/03/20 07:51:38;;;;;;;16.90;7.40;;;;;;;3.00;47.11;102950.81;1776358;81;21162;-61
2022/03/20 07:54:07;;;;;;;19.55;7.05;;;;;;;3.06;47.17;102953.17;1745608;82;21163;-62
2022/03/20 07:56:36;;;;;;;19.75;7.40;;;;;;;3.12;47.25;102951.48;1815085;79;21127;-59
2022/03/20 07:59:06;;;;;;;15.10;6.85;;;;;;;3.20;47.37;102945.62;1776448;81;21162;-62
2022/03/20 08:01:38;;;;;;;14.87;6.47;;;;;;;3.44;47.21;102946.95;1745675;82;21159;-61
2022/03/20 08:04:08;;;;;;;14.35;7.12;;;;;;;3.83;46.87;102952.34;1814863;79;21127;-62
2022/03/20 08:06:37;;;;;;;14.10;6.65;;;;;;;4.40;45.83;102949.30;1776231;81;21168;-62
2022/03/20 08:09:06;;;;;;;11.85;6.35;;;;;;;4.91;44.63;102947.00;1745519;82;21103;-64
2022/03/20 08:11:35;;;;;;;12.53;6.20;;;;;;;5.36;44.00;102936.85;1815040;79;21110;-60
2022/03/20 08:14:08;;;;;;;14.83;6.67;;;;;;;5.80;42.85;102937.06;1776535;81;21550;-63
2022/03/20 08:16:41;;;;;;;14.38;7.17;;;;;;;6.19;42.30;102937.09;1745849;82;21119;-62
2022/03/20 08:19:08;;;;;;;14.53;6.85;;;;;;;6.56;41.37;102937.25;1814290;79;21519;-62
2022/03/20 08:21:38;;;;;;;18.12;7.40;;;;;;;6.83;41.11;102940.71;1814774;79;21151;-63
2022/03/20 08:24:07;;;;;;;14.68;6.60;;;;;;;7.18;40.21;102933.20;1745668;82;21198;-61
2022/03/20 08:26:36;;;;;;;13.35;6.72;;;;;;;7.48;39.76;102930.03;1814776;79;21130;-62
2022/03/20 08:29:07;;;;;;;13.20;6.67;;;;;;;7.78;39.45;102926.33;1776389;81;21123;-62
2022/03/20 08:31:36;;;;;;;15.63;7.10;;;;;;;8.16;38.38;102926.61;1745489;82;21154;-61
2022/03/20 08:34:05;;;;;;;15.72;7.25;;;;;;;8.39;38.22;102928.94;1814734;79;21133;-62
2022/03/20 08:36:35;;;;;;;13.32;6.92;;;;;;;8.62;37.78;102927.13;1745677;82;21642;-63
2022/03/20 08:39:04;;;;;;;9.55;5.92;;;;;;;8.82;37.04;102927.75;1776473;81;21543;-62
2022/03/20 08:41:33;;;;;;;11.90;6.75;;;;;;;8.92;36.61;102930.11;1814985;79;21135;-63
2022/03/20 08:44:04;;;;;;;12.58;6.70;;;;;;;8.99;36.38;102923.15;1776460;81;21123;-62
2022/03/20 08:46:35;;;;;;;14.50;6.97;;;;;;;9.02;36.44;102925.63;1745470;82;21119;-62
2022/03/20 08:49:05;;;;;;;11.22;6.40;;;;;;;9.17;35.81;102925.77;1814888;79;21531;-62
2022/03/20 08:51:43;;;;;;;13.32;6.62;;;;;;;9.16;35.57;102920.42;1776124;81;21131;-61
2022/03/20 08:54:18;;;;;;;12.60;6.33;;;;;;;9.10;35.62;102918.16;1745697;82;21151;-62
2022/03/20 08:56:46;;;;;;;16.52;6.65;;;;;;;9.06;35.43;102913.44;1814770;79;21150;-62
2022/03/20 08:59:16;;;;;;;10.40;6.35;;;;;;;9.02;34.99;102913.33;1776238;81;21122;-62
2022/03/20 09:01:45;;;;;;;12.95;6.33;;;;;;;8.87;35.09;102915.95;1745437;82;21563;-62
2022/03/20 09:04:15;;;;;;;10.25;5.70;;;;;;;8.74;35.27;102917.45;1814744;79;21535;-62
2022/03/20 09:06:47;;;;;;;13.88;5.65;;;;;;;8.60;35.50;102911.35;1776207;81;21123;-63
2022/03/20 09:09:17;;;;;;;11.30;5.78;;;;;;;8.47;35.24;102918.30;1745812;82;21221;-62
2022/03/20 09:11:47;;;;;;;11.12;5.40;;;;;;;8.28;35.14;102910.63;1814970;79;21149;-63
2022/03/20 09:14:17;;;;;;;12.05;6.15;;;;;;;8.04;35.46;102916.66;1814829;79;21111;-63
2022/03/20 09:19:36;;;;;;;9.98;5.83;;;;;;;7.86;35.56;102910.27;1745778;82;21103;-63
2022/03/20 09:22:06;;;;;;;9.23;5.35;;;;;;;7.81;35.52;102906.16;1745513;82;21150;-63
2022/03/20 09:24:35;;;;;;;10.48;6.08;;;;;;;7.79;35.76;102911.70;1744106;82;21548;-62
2022/03/20 09:27:05;;;;;;;10.25;5.80;;;;;;;7.81;35.87;102896.60;1806153;79;21605;-62
2022/03/20 09:29:34;;;;;;;11.57;5.67;;;;;;;7.79;35.78;102900.78;1737614;82;21124;-62
2022/03/20 09:32:05;;;;;;;11.57;5.50;;;;;;;7.82;35.86;102907.41;1767989;81;21104;-62
2022/03/20 09:34:34;;;;;;;10.48;5.33;;;;;;;7.85;35.61;102903.06;1737641;82;21174;-62
2022/03/20 09:37:04;;;;;;;11.95;6.20;;;;;;;7.83;35.25;102896.86;1737589;82;21195;-63
2022/03/20 09:39:32;;;;;;;11.68;5.72;;;;;;;7.78;35.27;102897.67;1806393;79;21543;-62
2022/03/20 09:42:01;;;;;;;10.70;5.67;;;;;;;7.79;35.34;102899.91;1767848;81;21116;-62
2022/03/20 09:44:33;;;;;;;10.23;5.47;;;;;;;7.79;35.14;102899.91;1784557;79;21145;-62
2022/03/20 09:47:02;;;;;;;11.03;5.75;;;;;;;7.77;35.38;102902.76;1805937;79;21582;-62
2022/03/20 09:49:32;;;;;;;12.63;5.53;;;;;;;7.79;35.14;102892.59;1737559;82;21127;-62
2022/03/20 09:52:01;;;;;;;11.22;5.33;;;;;;;7.83;35.24;102895.98;1768114;81;21178;-63
2022/03/20 09:54:30;;;;;;;11.83;5.45;;;;;;;7.84;35.23;102893.14;1737644;82;21551;-63
2022/03/20 09:57:05;;;;;;;10.25;5.10;;;;;;;7.87;34.73;102889.30;1737818;82;21127;-62
2022/03/20 09:59:34;;;;;;;10.48;5.00;;;;;;;7.86;34.94;102884.34;1737537;82;21548;-64
2022/03/20 10:02:10;;;;;;;10.80;4.97;;;;;;;7.83;34.93;102890.53;1737518;82;21151;-62
2022/03/20 10:05:02;;;;;;;8.23;5.03;;;;;;;7.77;34.65;102883.66;1806197;79;21099;-64
2022/03/20 10:07:44;;;;;;;10.30;5.17;;;;;;;7.71;34.87;102878.67;1806390;79;21103;-62
2022/03/20 10:10:23;;;;;;;9.23;5.05;;;;;;;7.67;34.93;102875.80;1806003;79;21134;-61
2022/03/20 10:12:55;;;;;;;10.23;4.90;;;;;;;7.70;34.91;102883.75;1737699;82;21131;-62
2022/03/20 10:15:35;;;;;;;8.63;4.42;;;;;;;7.72;34.67;102879.05;1806434;79;21174;-63
2022/03/20 10:18:24;;;;;;;8.05;4.72;;;;;;;7.75;34.90;102878.81;1806420;79;21107;-62
2022/03/20 10:20:53;;;;;;;9.00;4.53;;;;;;;7.80;34.74;102870.27;1806482;79;21543;-62
2022/03/20 10:23:36;;;;;;;9.88;4.60;;;;;;;7.81;34.79;102874.77;1737731;82;21123;-62
2022/03/20 10:26:12;;;;;;;8.60;4.10;;;;;;;7.81;34.74;102871.54;1767956;81;21160;-62
2022/03/20 10:28:45;;;;;;;8.48;4.22;;;;;;;7.81;34.72;102863.84;1806427;79;21182;-63
2022/03/20 10:31:20;;;;;;;9.43;4.75;;;;;;;7.80;34.80;102871.16;1737759;82;21131;-61
2022/03/20 10:34:04;;;;;;;8.83;4.65;;;;;;;7.84;34.54;102867.70;1767962;81;21139;-62
2022/03/20 10:36:34;;;;;;;12.68;4.80;;;;;;;7.84;34.41;102869.06;1806181;79;21142;-61
2022/03/20 10:39:15;;;;;;;9.20;4.47;;;;;;;7.82;34.43;102860.13;1737473;82;21131;-64
2022/03/20 10:41:45;;;;;;;13.25;5.00;;;;;;;7.78;34.27;102851.27;1806148;79;21111;-63
2022/03/20 10:44:22;;;;;;;10.82;4.33;;;;;;;7.79;34.35;102850.28;1765232;81;21178;-62
2022/03/20 10:47:10;;;;;;;9.75;3.87;;;;;;;7.82;34.28;102847.84;1737581;82;21123;-62
2022/03/20 10:49:37;;;;;;;7.45;4.20;;;;;;;7.82;34.07;102844.62;1806043;79;21099;-62
2022/03/20 10:52:11;;;;;;;8.50;4.20;;;;;;;7.82;34.21;102847.35;1806427;79;21159;-62
2022/03/20 10:54:43;;;;;;;9.83;4.12;;;;;;;7.86;33.86;102849.34;1806158;79;21099;-62
2022/03/20 10:57:13;;;;;;;8.63;4.22;;;;;;;7.88;33.71;102840.54;1740121;81;21159;-61
2022/03/20 10:59:43;;;;;;;7.75;4.10;;;;;;;7.89;33.70;102839.05;1785454;80;21092;-62
2022/03/20 11:02:23;;;;;;;10.60;4.90;;;;;;;7.93;33.61;102842.41;1774654;81;21124;-63
2022/03/20 11:04:52;;;;;;;7.75;4.00;;;;;;;7.93;33.27;102842.41;1774479;81;21113;-62
2022/03/20 11:07:23;;;;;;;9.68;4.10;;;;;;;7.94;33.33;102827.77;1774578;80;21139;-63
2022/03/20 11:09:55;;;;;;;9.50;4.30;;;;;;;7.95;33.02;102829.02;1774515;81;21139;-64
2022/03/20 11:12:32;;;;;;;7.00;4.10;;;;;;;8.06;33.26;102825.93;1774577;81;21160;-62
2022/03/20 11:15:06;;;;;;;6.55;3.98;;;;;;;8.10;33.11;102821.96;1774866;81;21105;-63
2022/03/20 11:17:45;;;;;;;6.35;3.67;;;;;;;8.17;33.05;102825.94;1774338;81;21156;-61
2022/03/20 11:20:16;;;;;;;8.60;4.30;;;;;;;8.18;32.82;102806.70;1774512;81;21584;-62
2022/03/20 11:22:53;;;;;;;8.03;4.05;;;;;;;8.16;32.82;102803.72;1774505;81;21168;-61
2022/03/20 11:25:25;;;;;;;8.33;4.55;;;;;;;8.19;33.00;102807.57;1777445;80;21148;-61
2022/03/20 11:28:03;;;;;;;9.23;4.22;;;;;;;8.19;32.75;102804.84;1788133;80;21644;-61
2022/03/20 11:30:32;;;;;;;11.97;3.75;;;;;;;8.19;32.88;102793.41;1787955;80;21690;-61
2022/03/20 11:33:01;;;;;;;7.72;4.12;;;;;;;8.24;32.59;102796.64;1788228;80;21119;-62
2022/03/20 11:35:33;;;;;;;9.13;3.95;;;;;;;8.27;32.53;102788.70;1788268;80;21629;-63
2022/03/20 11:38:24;;;;;;;7.72;3.83;;;;;;;8.32;31.94;102790.56;1788326;80;21142;-63
2022/03/20 11:41:16;;;;;;;6.22;3.75;;;;;;;8.36;31.83;102787.98;1788237;79;21157;-57
2022/03/20 11:43:47;;;;;;;7.70;4.10;;;;;;;8.33;31.97;102785.97;1788462;79;21162;-58
2022/03/20 11:46:34;;;;;;;6.75;4.00;;;;;;;8.32;32.40;102787.83;1785761;80;21594;-57
2022/03/20 11:49:22;;;;;;;7.55;4.22;;;;;;;8.33;32.34;102786.87;1788562;80;21143;-58
2022/03/20 11:51:58;;;;;;;9.13;4.45;;;;;;;8.35;32.43;102784.88;1788517;79;21613;-58
2022/03/20 11:54:47;;;;;;;9.30;4.30;;;;;;;8.41;32.41;102780.28;1788467;79;21071;-57
2022/03/20 11:57:30;;;;;;;7.90;4.47;;;;;;;8.42;32.14;102775.19;1788617;79;21100;-58
2022/03/20 12:00:11;;;;;;;11.48;4.70;;;;;;;8.42;32.23;102773.83;1788260;80;21627;-58
2022/03/20 12:03:13;;;;;;;7.00;4.20;;;;;;;8.42;32.23;102766.13;1787273;80;21116;-56
2022/03/20 12:06:00;;;;;;;11.88;4.70;;;;;;;8.41;32.17;102759.79;1788593;80;21122;-56
2022/03/20 12:09:09;;;;;;;8.70;4.65;;;;;;;8.41;32.16;102769.35;1760042;80;21637;-58
2022/03/20 12:12:27;;;;;;;8.83;5.08;;;;;;;8.44;32.23;102760.91;1788083;80;21110;-57
2022/03/20 12:15:03;;;;;;;13.43;5.33;;;;;;;8.49;32.26;102760.56;1788534;80;21142;-55
2022/03/20 12:17:32;;;;;;;11.70;5.25;;;;;;;8.54;31.93;102755.09;1787994;80;21433;-59